Weather reports worldwide

Advertisment
Otranto, Italy (16334): temperature & dewpoint: 30.03.2020 22:00:00 - 05.04.2020 22:00:00 (CEST)Otranto, Italy (16334): wind speed: 30.03.2020 22:00:00 - 05.04.2020 22:00:00 (CEST)Otranto, Italy (16334): wind direction: 30.03.2020 22:00:00 - 05.04.2020 22:00:00 (CEST)Otranto, Italy (16334): reduced air pressure: 30.03.2020 22:00:00 - 05.04.2020 22:00:00 (CEST)Otranto, Italy (16334): precipitation: 30.03.2020 22:00:00 - 05.04.2020 22:00:00 (CEST)
Date & Time tt [°C] td [°C] ff [km/h] ff [kn] dd ppp [hPa] rr [mm]
05.04.2020 22:00:00 - - - - - - -
05.04.2020 21:00:00 14,7 13,7 9 5 ENE 1015,2 -
05.04.2020 20:00:00 14,9 13,9 13 7 NE 1014,3 0,0
05.04.2020 19:00:00 15,4 14,4 15 8 N 1013,4 -
05.04.2020 18:00:00 15,7 14,7 16 9 NNE 1013,0 -
05.04.2020 17:00:00 15,7 15,6 13 7 N 1012,5 -
05.04.2020 16:00:00 15,6 15,4 15 8 N 1012,3 -
05.04.2020 15:00:00 16,1 15,1 18 10 N 1012,2 -
05.04.2020 14:00:00 16,5 15,5 18 10 N 1012,0 0,0
05.04.2020 13:00:00 16,5 15,5 21 11 N 1012,0 -
05.04.2020 12:00:00 16,4 14,9 24 13 NNE 1011,6 -
05.04.2020 11:00:00 16,1 15,4 22 12 NNE 1011,6 -
05.04.2020 10:00:00 16,1 15,4 22 12 NE 1010,9 -
05.04.2020 09:00:00 14,7 14,0 26 14 NNE 1010,3 -
05.04.2020 08:00:00 14,5 13,2 22 12 NNE 1009,7 0,0
05.04.2020 07:00:00 14,0 13,0 16 9 N 1009,4 -
05.04.2020 06:00:00 13,8 13,7 21 11 N 1008,9 -
05.04.2020 05:00:00 13,7 13,6 18 10 NNE 1008,9 -
05.04.2020 04:00:00 13,7 13,6 21 11 N 1008,9 -
05.04.2020 03:00:00 13,8 12,8 18 10 NNE 1009,3 -
05.04.2020 02:00:00 13,9 12,9 21 11 N 1009,6 0,0
05.04.2020 01:00:00 13,9 12,9 16 9 N 1009,8 -
05.04.2020 00:00:00 13,8 12,8 18 10 N 1010,0 -
04.04.2020 23:00:00 14,0 13,8 18 10 NNE 1009,9 -
04.04.2020 22:00:00 13,2 12,2 16 9 NNW 1010,3 -
04.04.2020 21:00:00 13,6 12,6 22 12 NW 1010,0 -
04.04.2020 20:00:00 13,6 12,6 22 12 NNW 1009,7 0,0
04.04.2020 19:00:00 14,6 13,9 31 17 NW 1008,9 -
04.04.2020 18:00:00 15,3 13,9 29 16 N 1008,9 -
04.04.2020 17:00:00 15,7 15,0 29 16 N 1008,4 -
04.04.2020 16:00:00 16,0 15,0 26 14 N 1008,5 -
04.04.2020 15:00:00 16,0 15,3 29 16 N 1008,6 -
04.04.2020 14:00:00 16,2 15,2 26 14 NNE 1008,8 0,0
04.04.2020 13:00:00 16,1 14,6 26 14 N 1008,9 -
04.04.2020 12:00:00 15,4 14,4 24 13 N 1009,0 -
04.04.2020 11:00:00 15,3 14,3 21 11 NNE 1009,0 -
04.04.2020 10:00:00 14,4 13,4 24 13 N 1009,2 -
04.04.2020 09:00:00 12,9 12,8 21 11 N 1009,5 -
04.04.2020 08:00:00 11,9 11,9 16 9 NNW 1009,7 -
04.04.2020 07:00:00 11,4 11,4 18 10 NNW 1009,5 -
04.04.2020 06:00:00 10,8 10,8 16 9 NNW 1009,6 -
04.04.2020 05:00:00 10,8 10,8 18 10 NNW 1009,7 -
04.04.2020 04:00:00 10,8 10,8 16 9 NNW 1010,0 -
04.04.2020 03:00:00 11,5 11,5 21 11 N 1010,1 -
04.04.2020 02:00:00 11,3 11,3 18 10 N 1010,5 -
04.04.2020 01:00:00 11,2 11,2 16 9 NNE 1010,8 -
04.04.2020 00:00:00 11,3 11,3 15 8 N 1011,1 -
03.04.2020 23:00:00 11,2 11,2 15 8 N 1011,3 -
03.04.2020 22:00:00 10,9 10,9 13 7 NNE 1011,4 -
03.04.2020 21:00:00 10,7 10,7 13 7 N 1011,4 -
03.04.2020 20:00:00 10,7 10,7 8 4 NE 1011,4 -
03.04.2020 19:00:00 10,5 10,5 13 7 N 1011,3 -
03.04.2020 18:00:00 10,7 10,7 11 6 N 1011,4 -
03.04.2020 17:00:00 10,9 10,9 9 5 N 1011,4 -
03.04.2020 16:00:00 11,3 11,3 9 5 N 1011,6 -
03.04.2020 15:00:00 11,8 11,8 9 5 N 1011,8 -
03.04.2020 14:00:00 11,5 11,5 8 4 NNE 1012,5 -
03.04.2020 13:00:00 11,8 11,8 8 4 N 1012,7 -
03.04.2020 12:00:00 12,1 11,3 11 6 N 1012,9 -
03.04.2020 11:00:00 11,8 11,0 8 4 NNE 1012,7 -
03.04.2020 10:00:00 11,9 11,4 9 5 NNE 1012,7 -
03.04.2020 09:00:00 10,9 10,1 5 3 NW 1012,7 -
03.04.2020 08:00:00 8,0 7,7 5 3 NNW 1012,4 0,0
03.04.2020 07:00:00 8,1 7,2 8 4 NW 1012,4 -
03.04.2020 06:00:00 8,0 7,1 5 3 NW 1012,5 -
03.04.2020 05:00:00 7,9 6,8 4 2 NNW 1012,4 -
03.04.2020 04:00:00 7,0 5,9 5 3 NW 1013,1 -
03.04.2020 03:00:00 6,5 5,4 5 3 WNW 1013,4 -
03.04.2020 02:00:00 5,8 4,6 5 3 WNW 1013,8 0,0
03.04.2020 01:00:00 6,2 5,0 5 3 NW 1014,0 -
03.04.2020 00:00:00 6,1 4,9 4 2 WNW 1014,0 -
02.04.2020 23:00:00 6,3 5,1 5 3 NW 1014,0 -
02.04.2020 22:00:00 6,5 5,3 5 3 NW 1014,0 -
02.04.2020 21:00:00 7,8 6,4 5 3 N 1013,6 -
02.04.2020 20:00:00 9,3 7,9 8 4 NNE 1013,0 0,0
02.04.2020 19:00:00 10,6 8,8 9 5 NE 1013,1 -
02.04.2020 18:00:00 11,6 9,7 15 8 NNE 1012,6 -
02.04.2020 17:00:00 12,2 9,9 15 8 N 1013,4 -
02.04.2020 16:00:00 12,4 10,1 16 9 NNE 1013,5 -
02.04.2020 15:00:00 12,5 10,4 15 8 NNW 1013,8 -
02.04.2020 14:00:00 12,5 10,7 16 9 N 1014,1 0,0
02.04.2020 13:00:00 12,1 10,5 16 9 NE 1014,3 -
02.04.2020 12:00:00 11,7 10,3 13 7 N 1014,4 -
02.04.2020 11:00:00 10,2 8,8 9 5 NNW 1014,5 -
02.04.2020 10:00:00 9,6 9,1 9 5 NNW 1014,2 -
02.04.2020 09:00:00 8,4 7,9 9 5 NNW 1013,7 -
02.04.2020 08:00:00 7,2 6,6 9 5 WNW 1013,7 0,0
02.04.2020 07:00:00 6,5 5,9 9 5 NW 1013,4 -
02.04.2020 06:00:00 5,9 5,5 8 4 WNW 1013,3 -
02.04.2020 05:00:00 5,5 4,4 9 5 WNW 1013,2 -
02.04.2020 04:00:00 6,4 5,2 13 7 NW 1013,1 -
02.04.2020 03:00:00 6,4 5,2 9 5 WNW 1013,0 -
02.04.2020 02:00:00 6,5 5,3 15 8 NNW 1013,3 0,0
02.04.2020 01:00:00 5,6 4,4 13 7 W 1013,7 -
02.04.2020 00:00:00 5,9 4,7 9 5 WNW 1013,6 -
01.04.2020 23:00:00 7,4 6,0 16 9 N 1013,2 -
01.04.2020 22:00:00 7,7 6,5 16 9 NW 1013,7 -
01.04.2020 21:00:00 8,1 7,8 11 6 NNW 1013,5 -
01.04.2020 20:00:00 8,4 7,8 15 8 NW 1012,9 -
01.04.2020 19:00:00 8,3 7,7 16 9 NNW 1012,4 -
01.04.2020 18:00:00 7,8 7,8 22 12 N 1011,8 -
01.04.2020 17:00:00 9,3 8,8 29 16 N 1011,4 -
01.04.2020 16:00:00 9,3 7,9 29 16 NNW 1010,9 -
01.04.2020 15:00:00 11,4 9,8 26 14 W 1010,4 -
01.04.2020 14:00:00 12,2 11,1 16 9 NNW 1010,7 -
01.04.2020 13:00:00 9,5 9,0 18 10 NW 1011,3 -
01.04.2020 12:00:00 8,2 8,2 21 11 WNW 1011,9 -
01.04.2020 11:00:00 6,6 6,6 18 10 NW 1012,2 -
01.04.2020 10:00:00 5,5 5,5 18 10 NW 1012,3 -
01.04.2020 09:00:00 5,5 5,5 22 12 WNW 1012,3 -
01.04.2020 08:00:00 6,0 6,0 24 13 NW 1012,0 -
01.04.2020 07:00:00 7,4 7,4 21 11 NW 1011,7 -
01.04.2020 06:00:00 8,3 8,3 18 10 NNW 1011,7 -
01.04.2020 05:00:00 9,6 9,6 15 8 NNW 1011,9 -
01.04.2020 04:00:00 10,3 10,3 13 7 NNW 1012,3 -
01.04.2020 03:00:00 10,4 10,4 13 7 N 1012,7 -
01.04.2020 02:00:00 10,5 10,5 15 8 WNW 1013,6 0,0
01.04.2020 01:00:00 10,5 10,5 13 7 NNW 1014,4 -
01.04.2020 00:00:00 11,2 11,2 15 8 NNW 1014,9 -
31.03.2020 23:00:00 11,7 11,7 16 9 N 1014,9 -
31.03.2020 22:00:00 11,9 11,9 22 12 N 1015,0 -
31.03.2020 21:00:00 12,4 11,6 18 10 N 1015,2 -
31.03.2020 20:00:00 12,8 11,8 21 11 NNW 1014,6 0,0
31.03.2020 19:00:00 13,3 12,3 21 11 N 1013,9 -
31.03.2020 18:00:00 14,8 13,8 24 13 N 1013,3 -
31.03.2020 17:00:00 15,9 14,2 24 13 N 1012,8 -
31.03.2020 16:00:00 16,4 15,4 24 13 NNW 1012,8 -
31.03.2020 15:00:00 17,3 16,1 22 12 N 1012,6 -
31.03.2020 14:00:00 17,7 16,8 18 10 NNW 1012,8 0,0
31.03.2020 13:00:00 17,5 16,3 18 10 NNW 1013,0 -
31.03.2020 12:00:00 16,9 16,8 16 9 N 1013,1 -
31.03.2020 11:00:00 15,4 15,3 16 9 N 1013,1 -
31.03.2020 10:00:00 14,6 14,5 15 8 NNW 1012,9 -
31.03.2020 09:00:00 12,7 12,7 15 8 NW 1012,5 -
31.03.2020 08:00:00 12,2 12,2 16 9 NNW 1012,2 -
31.03.2020 07:00:00 11,8 11,8 13 7 NNW 1011,9 -
31.03.2020 06:00:00 12,0 12,0 15 8 NNW 1011,6 -
31.03.2020 05:00:00 12,0 12,0 15 8 NW 1011,4 -
31.03.2020 04:00:00 12,0 12,0 15 8 NNW 1011,4 -
31.03.2020 03:00:00 11,6 11,6 15 8 NNW 1011,3 -
31.03.2020 02:00:00 11,5 11,5 11 6 NNW 1011,4 -
31.03.2020 01:00:00 11,7 11,7 11 6 NNW 1011,3 -
31.03.2020 00:00:00 11,9 11,9 9 5 N 1011,4 -
30.03.2020 23:00:00 11,9 11,9 11 6 NNW 1011,3 -
30.03.2020 22:00:00 12,1 12,1 8 4 NNW 1011,1 -

tt = temperature
td = dewpoint
ff = wind speed
dd = wind direction
ppp = reduced air pressure
rr = precipitation

Next stations